Time;durP1;ratioP1;P1;durP2;ratioP2;P2;SDS_P1;SDS_P2;PMS_P1;PMS_P2;Temp;Humidity;BMP_temperature;BMP_pressure;BME280_temperature;BME280_humidity;BME280_pressure;Samples;Min_cycle;Max_cycle;Signal;HPM_P1;HPM_P2
2023/03/14 00:00:54;;;;;;;16.45;4.00;;;;;;;-144.73;91.98;54526.75;5021285;28;20036;-72
2023/03/14 00:03:19;;;;;;;9.75;3.85;;;;;;;-144.73;92.01;54518.53;5052382;28;20066;-72
2023/03/14 00:05:45;;;;;;;13.18;4.00;;;;;;;-144.73;91.98;54518.53;5024248;28;20022;-72
2023/03/14 00:08:11;;;;;;;17.45;4.18;;;;;;;-144.73;92.71;54522.63;5023616;28;20151;-73
2023/03/14 00:10:36;;;;;;;13.00;3.75;;;;;;;-144.73;92.50;54543.16;5032148;28;20048;-73
2023/03/14 00:13:02;;;;;;;13.85;3.50;;;;;;;-144.73;93.00;54526.75;5036784;28;20026;-73
2023/03/14 00:15:27;;;;;;;18.63;3.58;;;;;;;-144.73;92.84;54528.81;5031946;28;20025;-73
2023/03/14 00:17:52;;;;;;;12.50;3.95;;;;;;;-144.73;93.59;54522.63;5043882;28;20032;-73
2023/03/14 00:20:18;;;;;;;19.42;4.32;;;;;;;-144.73;92.86;54506.22;5042815;28;20106;-72
2023/03/14 00:22:43;;;;;;;12.25;3.42;;;;;;;-144.73;92.38;54518.53;5027364;28;20120;-72
2023/03/14 00:25:10;;;;;;;15.50;4.25;;;;;;;-144.73;92.66;54592.44;5019650;28;20072;-72
2023/03/14 00:27:36;;;;;;;23.70;3.80;;;;;;;-144.73;92.67;54555.47;5014957;28;20049;-72
2023/03/14 00:30:02;;;;;;;12.90;3.95;;;;;;;-144.73;92.26;54547.28;5021960;28;20481;-73
2023/03/14 00:32:28;;;;;;;12.98;3.60;;;;;;;-144.73;91.57;54580.13;5018563;28;20083;-73
2023/03/14 00:34:53;;;;;;;13.70;3.80;;;;;;;-144.73;90.80;54559.59;5021509;28;20044;-73
2023/03/14 00:37:19;;;;;;;11.50;3.45;;;;;;;-144.73;90.59;54539.06;5019404;28;20053;-73
2023/03/14 00:39:44;;;;;;;15.68;3.50;;;;;;;-144.73;90.14;54571.91;5019398;28;20096;-73
2023/03/14 00:42:09;;;;;;;22.77;4.50;;;;;;;-144.73;90.04;54485.69;5019074;28;20524;-72
2023/03/14 00:44:35;;;;;;;18.20;4.45;;;;;;;-144.73;89.87;54563.69;5014743;28;20033;-71
2023/03/14 00:47:00;;;;;;;19.80;3.55;;;;;;;-144.73;90.64;54518.53;5022662;28;20021;-71
2023/03/14 00:49:26;;;;;;;17.90;3.40;;;;;;;-144.73;90.32;54539.06;5031405;28;20532;-72
2023/03/14 00:51:52;;;;;;;29.13;5.03;;;;;;;-144.73;90.42;54539.06;5037244;28;20113;-73
2023/03/14 00:54:19;;;;;;;24.27;4.20;;;;;;;-144.73;90.71;54514.44;5017900;28;20024;-72
2023/03/14 00:56:44;;;;;;;16.60;4.15;;;;;;;-144.73;90.31;54539.06;5014468;28;20029;-72
2023/03/14 00:59:10;;;;;;;19.33;3.90;;;;;;;-144.73;91.41;54547.28;5015174;28;20026;-73
2023/03/14 01:01:35;;;;;;;20.52;4.38;;;;;;;-144.73;91.05;54518.53;5034806;28;20045;-72
2023/03/14 01:04:01;;;;;;;18.95;3.63;;;;;;;-144.73;91.15;54571.91;5037885;28;20072;-73
2023/03/14 01:06:28;;;;;;;18.38;4.28;;;;;;;-144.73;91.96;54547.28;5014415;28;20107;-73
2023/03/14 01:08:55;;;;;;;15.95;4.15;;;;;;;-144.73;92.11;54563.69;5019927;28;20055;-72
2023/03/14 01:11:24;;;;;;;19.20;4.10;;;;;;;-144.73;92.11;54539.06;5017090;28;20049;-73
2023/03/14 01:13:49;;;;;;;17.98;4.07;;;;;;;-144.73;92.14;54530.84;5014437;28;20159;-72
2023/03/14 01:16:17;;;;;;;14.90;3.65;;;;;;;-144.73;92.33;54530.84;5039937;28;20116;-72
2023/03/14 01:18:43;;;;;;;15.45;4.20;;;;;;;-144.73;92.35;54524.69;5020547;28;20604;-72
2023/03/14 01:21:15;;;;;;;17.55;4.28;;;;;;;-144.73;92.41;54516.47;5039893;28;20017;-72
2023/03/14 01:23:41;;;;;;;;;;;;;;;-144.73;91.58;54502.13;5049137;28;20085;-73
2023/03/14 01:26:11;;;;;;;13.55;3.67;;;;;;;-144.73;91.70;54528.81;5028466;28;19998;-72
2023/03/14 01:28:37;;;;;;;20.77;4.40;;;;;;;-144.73;92.29;54506.22;5015073;28;20048;-72
2023/03/14 01:31:04;;;;;;;15.20;4.30;;;;;;;-144.73;91.86;54547.28;5021974;28;20025;-72
2023/03/14 01:33:30;;;;;;;16.25;4.20;;;;;;;-144.73;92.50;54506.22;5040128;28;20029;-72
2023/03/14 01:35:55;;;;;;;18.80;3.90;;;;;;;-144.73;92.26;54565.75;5038515;28;20393;-72
2023/03/14 01:38:21;;;;;;;13.25;4.68;;;;;;;-144.73;92.88;54518.53;5018526;28;20035;-72
2023/03/14 01:40:46;;;;;;;22.35;4.38;;;;;;;-144.73;92.51;54551.38;5013814;28;20116;-72
2023/03/14 01:43:18;;;;;;;16.08;4.13;;;;;;;-144.73;93.00;54498.00;5038430;28;20037;-72
2023/03/14 01:46:02;;;;;;;;;;;;;;;-144.73;93.04;54530.84;5026268;28;20444;-72
2023/03/14 01:48:35;;;;;;;17.30;4.25;;;;;;;-144.73;94.30;54506.22;5035732;28;20008;-72
2023/03/14 01:51:02;;;;;;;11.15;3.50;;;;;;;-144.73;93.59;54539.06;5013736;28;20025;-72
2023/03/14 01:53:29;;;;;;;15.07;3.95;;;;;;;-144.73;94.40;54518.53;5040856;28;20025;-72
2023/03/14 01:55:56;;;;;;;23.25;4.22;;;;;;;-144.73;94.83;54557.53;5028272;28;20119;-73
2023/03/14 01:58:25;;;;;;;16.85;4.22;;;;;;;-144.73;95.27;54547.28;5014462;28;20036;-72
2023/03/14 02:00:50;;;;;;;14.07;4.15;;;;;;;-144.73;95.56;54543.16;5038583;28;20036;-72
2023/03/14 02:03:20;;;;;;;12.38;4.60;;;;;;;-144.73;95.35;54571.91;5021475;28;20116;-72
2023/03/14 02:05:46;;;;;;;20.92;4.25;;;;;;;-144.73;94.96;54506.22;5013518;28;20080;-73
2023/03/14 02:08:19;;;;;;;14.18;4.05;;;;;;;-144.73;94.75;54543.16;5013479;28;20129;-72
2023/03/14 02:10:47;;;;;;;12.98;3.97;;;;;;;-144.73;94.89;54516.47;5029989;28;20056;-72
2023/03/14 02:13:14;;;;;;;17.88;4.60;;;;;;;-144.73;95.01;54518.53;5033944;28;20030;-72
2023/03/14 02:15:40;;;;;;;20.60;4.90;;;;;;;-144.73;95.05;54520.59;5031476;28;20038;-72
2023/03/14 02:18:07;;;;;;;14.43;4.53;;;;;;;-144.73;95.26;54526.75;5020992;28;20033;-72
2023/03/14 02:20:55;;;;;;;16.98;5.18;;;;;;;-144.73;95.82;54543.16;5050332;28;20116;-72
2023/03/14 02:23:50;;;;;;;13.20;4.32;;;;;;;-144.73;95.19;54539.06;5032534;28;20037;-72
2023/03/14 02:26:26;;;;;;;13.85;4.20;;;;;;;-144.73;95.29;54543.16;5028793;28;20559;-72
2023/03/14 02:28:53;;;;;;;22.08;4.45;;;;;;;-144.73;95.51;54539.06;5050675;28;20024;-73
2023/03/14 02:31:21;;;;;;;15.10;3.85;;;;;;;-144.73;94.82;54522.63;5033016;28;20103;-73
2023/03/14 02:33:46;;;;;;;17.67;4.75;;;;;;;-144.73;95.46;54563.69;5047529;28;20060;-72
2023/03/14 02:36:14;;;;;;;20.33;4.50;;;;;;;-144.73;95.71;54526.75;5027871;28;20454;-72
2023/03/14 02:38:49;;;;;;;17.92;3.83;;;;;;;-144.73;95.29;54518.53;5036345;28;20037;-72
2023/03/14 02:41:15;;;;;;;23.95;4.97;;;;;;;-144.73;94.68;54551.38;5030216;28;20102;-72
2023/03/14 02:43:41;;;;;;;14.95;3.33;;;;;;;-144.73;94.71;54539.06;5024950;28;20119;-72
2023/03/14 02:46:11;;;;;;;17.42;3.83;;;;;;;-144.73;94.16;54543.16;5047983;28;20025;-72
2023/03/14 02:48:42;;;;;;;15.88;3.88;;;;;;;-144.73;93.54;54522.63;5024043;28;20057;-72
2023/03/14 02:51:08;;;;;;;14.75;4.97;;;;;;;-144.73;93.88;54551.38;5016792;28;20033;-72
2023/03/14 02:53:36;;;;;;;20.70;4.88;;;;;;;-144.73;93.87;54547.28;5034925;28;20033;-72
2023/03/14 02:56:02;;;;;;;14.90;4.18;;;;;;;-144.73;94.01;54522.63;5023931;28;20029;-73
2023/03/14 02:58:28;;;;;;;9.88;3.85;;;;;;;-144.73;93.56;54555.47;5025691;28;20056;-72
2023/03/14 03:00:54;;;;;;;13.38;4.10;;;;;;;-144.73;93.69;54506.22;5048346;28;20421;-72
2023/03/14 03:03:20;;;;;;;17.98;4.82;;;;;;;-144.73;93.80;54543.16;5033464;28;20029;-72
2023/03/14 03:05:50;;;;;;;15.30;4.68;;;;;;;-144.73;93.97;54539.06;5025017;28;20124;-72
2023/03/14 03:08:16;;;;;;;22.98;4.25;;;;;;;-144.73;93.67;54485.69;5024575;28;20318;-72
2023/03/14 03:10:41;;;;;;;13.60;4.28;;;;;;;-144.73;93.65;54551.38;5025008;28;20028;-72
2023/03/14 03:13:07;;;;;;;20.02;4.47;;;;;;;-144.73;93.84;54539.06;5016694;28;20040;-72
2023/03/14 03:15:32;;;;;;;17.27;5.20;;;;;;;-144.73;93.69;54551.38;5043057;28;20037;-71
2023/03/14 03:17:57;;;;;;;15.95;4.05;;;;;;;-144.73;92.94;54551.38;5023808;28;20037;-71
2023/03/14 03:20:23;;;;;;;21.73;5.30;;;;;;;-144.73;93.46;54522.63;5016855;28;20032;-71
2023/03/14 03:22:49;;;;;;;15.18;4.70;;;;;;;-144.73;92.80;54539.06;5024570;28;20037;-72
2023/03/14 03:25:16;;;;;;;12.35;3.65;;;;;;;-144.73;93.12;54559.59;5024660;28;20029;-71
2023/03/14 03:27:41;;;;;;;11.02;3.88;;;;;;;-144.73;92.87;54506.22;5016178;28;20033;-71
2023/03/14 03:30:07;;;;;;;16.45;4.78;;;;;;;-144.73;92.77;54559.59;5033974;28;20032;-72
2023/03/14 03:32:33;;;;;;;15.15;4.47;;;;;;;-144.73;92.46;54522.63;5015747;28;20116;-71
2023/03/14 03:34:58;;;;;;;14.48;4.05;;;;;;;-144.73;92.88;54518.53;5024641;28;20125;-72
2023/03/14 03:37:24;;;;;;;14.15;4.20;;;;;;;-144.73;92.30;54526.75;5020897;28;20044;-73
2023/03/14 03:39:52;;;;;;;14.65;4.22;;;;;;;-144.73;91.76;54539.06;5021917;28;20021;-71
2023/03/14 03:42:18;;;;;;;17.80;4.75;;;;;;;-144.73;91.21;54512.38;5023451;28;20103;-71
2023/03/14 03:44:44;;;;;;;17.25;4.65;;;;;;;-144.73;91.28;54567.81;5026736;28;20037;-71
2023/03/14 03:47:09;;;;;;;13.88;3.67;;;;;;;-144.73;91.20;54539.06;5052409;28;20121;-71
2023/03/14 03:49:35;;;;;;;20.98;3.78;;;;;;;-144.73;91.60;54539.06;5019068;28;20037;-71
2023/03/14 03:52:00;;;;;;;16.67;4.78;;;;;;;-144.73;91.23;54520.59;5040109;28;20033;-71
2023/03/14 03:54:26;;;;;;;13.07;3.55;;;;;;;-144.73;91.37;54539.06;5015350;28;20026;-71
2023/03/14 03:56:52;;;;;;;13.55;4.13;;;;;;;-144.73;91.01;54567.81;5041107;28;20049;-72
2023/03/14 03:59:17;;;;;;;12.50;3.85;;;;;;;-144.73;91.23;54518.53;5033802;28;20066;-72
2023/03/14 04:01:43;;;;;;;14.90;3.88;;;;;;;-144.73;91.21;54547.28;5015122;28;20120;-72
2023/03/14 04:04:09;;;;;;;15.20;4.78;;;;;;;-144.73;91.22;54551.38;5033529;28;20029;-72
2023/03/14 04:06:34;;;;;;;20.05;3.83;;;;;;;-144.73;90.75;54539.06;5041248;28;20037;-72
2023/03/14 04:08:59;;;;;;;16.75;4.38;;;;;;;-144.73;90.30;54522.63;5035396;28;20027;-72
2023/03/14 04:11:25;;;;;;;18.27;4.90;;;;;;;-144.73;90.15;54541.13;5034856;28;20112;-73
2023/03/14 04:13:50;;;;;;;23.65;4.63;;;;;;;-144.73;90.40;54539.06;5033750;28;20018;-72
2023/03/14 04:16:18;;;;;;;19.70;4.90;;;;;;;-144.73;90.71;54510.31;5021205;28;20044;-73
2023/03/14 04:18:43;;;;;;;50.50;5.10;;;;;;;-144.73;91.07;54545.22;5042575;28;20072;-72
2023/03/14 04:21:09;;;;;;;21.85;5.10;;;;;;;-144.73;90.83;54543.16;5017543;28;20102;-72
2023/03/14 04:23:34;;;;;;;11.82;4.15;;;;;;;-144.73;90.43;54555.47;5023428;28;20053;-72
2023/03/14 04:26:00;;;;;;;17.50;3.92;;;;;;;-144.73;90.29;54551.38;5023052;28;20355;-72
2023/03/14 04:28:25;;;;;;;15.05;4.57;;;;;;;-144.73;90.52;54547.28;5032125;28;20041;-72
2023/03/14 04:30:50;;;;;;;14.30;3.45;;;;;;;-144.73;89.93;54551.38;5017135;28;20389;-72
2023/03/14 04:33:17;;;;;;;15.93;3.95;;;;;;;-144.73;89.97;54518.53;5023131;28;20457;-72
2023/03/14 04:35:43;;;;;;;20.58;4.60;;;;;;;-144.73;89.95;54563.69;5015039;28;20071;-73
2023/03/14 04:38:09;;;;;;;20.58;4.32;;;;;;;-144.73;89.96;54563.69;5014804;28;20060;-72
2023/03/14 04:40:40;;;;;;;12.90;4.28;;;;;;;-144.73;89.89;54530.84;5023965;28;20069;-73
2023/03/14 04:43:07;;;;;;;19.60;4.32;;;;;;;-144.73;89.66;54526.75;5030978;28;20033;-72
2023/03/14 04:45:32;;;;;;;18.98;4.35;;;;;;;-144.73;90.42;54551.38;5014811;28;20032;-72
2023/03/14 04:47:57;;;;;;;21.20;5.25;;;;;;;-144.73;89.51;54530.84;5014937;28;20104;-72
2023/03/14 04:50:23;;;;;;;17.92;5.00;;;;;;;-144.73;89.72;54565.75;5014906;28;20108;-72
2023/03/14 04:52:48;;;;;;;12.50;3.97;;;;;;;-144.73;89.70;54543.16;5040270;28;20452;-72
2023/03/14 04:55:14;;;;;;;16.70;4.70;;;;;;;-144.73;89.28;54539.06;5022486;28;20032;-73
2023/03/14 04:57:39;;;;;;;15.48;4.30;;;;;;;-144.73;89.13;54555.47;5040265;28;20029;-72
2023/03/14 05:00:09;;;;;;;25.17;5.82;;;;;;;-144.73;89.54;54539.06;5015099;28;20080;-72
2023/03/14 05:02:35;;;;;;;14.02;4.47;;;;;;;-144.73;89.08;54571.91;5039895;28;20128;-72
2023/03/14 05:05:00;;;;;;;10.88;4.10;;;;;;;-144.73;88.94;54530.84;5014470;28;20021;-73
2023/03/14 05:07:25;;;;;;;16.17;4.20;;;;;;;-144.73;88.39;54498.00;5029991;28;20025;-72
2023/03/14 05:09:53;;;;;;;18.98;4.45;;;;;;;-144.73;88.73;54571.91;5031223;28;20493;-72
2023/03/14 05:12:18;;;;;;;12.63;4.68;;;;;;;-144.73;88.68;54551.38;5020924;28;20037;-72
2023/03/14 05:14:44;;;;;;;16.98;5.30;;;;;;;-144.73;89.98;54559.59;5043851;28;20029;-72
2023/03/14 05:17:10;;;;;;;15.45;4.22;;;;;;;-144.73;90.69;54539.06;5028188;28;20033;-72
2023/03/14 05:19:35;;;;;;;20.10;4.95;;;;;;;-144.73;90.00;54539.06;5023150;28;20075;-72
2023/03/14 05:22:01;;;;;;;21.90;5.22;;;;;;;-144.73;89.46;54551.38;5020974;28;20030;-72
2023/03/14 05:24:26;;;;;;;17.10;4.60;;;;;;;-144.73;90.27;54539.06;5014515;28;20026;-73
2023/03/14 05:26:52;;;;;;;21.17;4.85;;;;;;;-144.73;91.41;54547.28;5017003;28;20025;-73
2023/03/14 05:29:17;;;;;;;22.75;4.80;;;;;;;-144.73;95.82;54539.06;5019563;28;20112;-78
2023/03/14 05:31:42;;;;;;;22.77;6.22;;;;;;;-144.73;98.44;54510.31;5017231;28;20112;-77
2023/03/14 05:34:08;;;;;;;17.98;4.95;;;;;;;-144.73;100.00;54506.22;5024115;28;20026;-77
2023/03/14 05:36:33;;;;;;;20.75;6.72;;;;;;;-144.73;100.00;54539.06;5018679;28;20076;-78
2023/03/14 05:38:58;;;;;;;13.95;5.05;;;;;;;-144.73;100.00;54571.91;5038644;28;20022;-77
2023/03/14 05:41:24;;;;;;;13.00;5.00;;;;;;;-144.73;100.00;54592.44;5015175;28;20079;-77
2023/03/14 05:43:49;;;;;;;15.45;4.82;;;;;;;-144.73;100.00;54539.06;5039544;28;20084;-76
2023/03/14 05:46:14;;;;;;;14.23;5.25;;;;;;;-144.73;100.00;54547.28;5031439;28;20473;-77
2023/03/14 05:48:39;;;;;;;14.73;5.85;;;;;;;-144.73;100.00;54555.47;5054423;28;20036;-79
2023/03/14 05:51:05;;;;;;;13.23;6.15;;;;;;;-144.73;100.00;54555.47;5034329;28;20082;-77
2023/03/14 05:53:31;;;;;;;17.88;5.97;;;;;;;-144.73;100.00;54565.75;5029669;28;20116;-77
2023/03/14 05:55:56;;;;;;;20.30;5.28;;;;;;;-144.73;100.00;54502.13;5014944;28;20037;-77
2023/03/14 05:58:22;;;;;;;25.52;6.38;;;;;;;-144.73;100.00;54539.06;5015332;28;20032;-77
2023/03/14 06:00:47;;;;;;;17.77;6.53;;;;;;;-144.73;100.00;54522.63;5022952;28;20021;-75
2023/03/14 06:03:13;;;;;;;18.30;7.03;;;;;;;-144.73;100.00;54514.44;5013993;28;20033;-77
2023/03/14 06:05:38;;;;;;;22.13;6.70;;;;;;;-144.73;100.00;54543.16;5014596;28;20167;-76
2023/03/14 06:08:04;;;;;;;20.83;7.40;;;;;;;-144.73;100.00;54528.81;5033316;28;20128;-77
2023/03/14 06:10:29;;;;;;;23.17;6.82;;;;;;;-144.73;100.00;54526.75;5033541;28;20035;-76
2023/03/14 06:12:54;;;;;;;16.35;7.55;;;;;;;-144.73;100.00;54526.75;5029867;28;20041;-75
2023/03/14 06:15:20;;;;;;;21.50;7.63;;;;;;;-144.73;100.00;54520.59;5045948;28;20025;-76
2023/03/14 06:17:45;;;;;;;18.42;6.07;;;;;;;-144.73;100.00;54518.53;5014938;28;20043;-76
2023/03/14 06:20:11;;;;;;;24.27;7.57;;;;;;;-144.73;100.00;54543.16;5022762;28;20022;-77
2023/03/14 06:22:38;;;;;;;19.48;6.47;;;;;;;-144.73;100.00;54528.81;5013686;28;20030;-75
2023/03/14 06:25:04;;;;;;;22.23;5.80;;;;;;;-144.73;100.00;54559.59;5013912;28;20017;-75
2023/03/14 06:27:29;;;;;;;16.45;5.97;;;;;;;-144.73;99.98;54557.53;5029541;28;20103;-76
2023/03/14 06:29:55;;;;;;;18.58;5.00;;;;;;;-144.73;99.19;54530.84;5014303;28;20021;-75
2023/03/14 06:32:20;;;;;;;22.98;5.55;;;;;;;-144.73;99.99;54543.16;5031126;28;20114;-75
2023/03/14 06:34:46;;;;;;;17.20;5.10;;;;;;;-144.73;100.00;54539.06;5039818;28;20056;-75
2023/03/14 06:37:11;;;;;;;22.88;6.15;;;;;;;-144.73;100.00;54518.53;5031216;28;20120;-75
2023/03/14 06:39:38;;;;;;;17.55;5.25;;;;;;;-144.73;99.71;54518.53;5022509;28;20033;-75
2023/03/14 06:42:04;;;;;;;24.92;5.18;;;;;;;-144.73;100.00;54522.63;5024358;28;20092;-72
2023/03/14 06:44:29;;;;;;;15.98;5.57;;;;;;;-144.73;99.88;54567.81;5043339;28;20123;-75
2023/03/14 06:46:55;;;;;;;14.27;5.35;;;;;;;-144.73;99.18;54559.59;5024075;28;20033;-73
2023/03/14 06:49:20;;;;;;;18.25;4.30;;;;;;;-144.73;98.34;54571.91;5018863;28;20028;-74
2023/03/14 06:51:46;;;;;;;15.63;4.38;;;;;;;-144.73;98.08;54555.47;5040570;28;20061;-73
2023/03/14 06:54:11;;;;;;;20.75;5.10;;;;;;;-144.73;97.45;54539.06;5020226;28;20029;-73
2023/03/14 06:56:37;;;;;;;12.85;4.00;;;;;;;-144.73;96.93;54543.16;5022105;28;20041;-73
2023/03/14 06:59:02;;;;;;;12.25;4.20;;;;;;;-144.73;96.02;54522.63;5033827;28;20033;-74
2023/03/14 07:01:29;;;;;;;14.27;3.72;;;;;;;-144.73;95.69;54551.38;5050691;28;20048;-73
2023/03/14 07:03:55;;;;;;;10.65;3.33;;;;;;;-144.73;96.61;54549.31;5033661;28;20049;-73
2023/03/14 07:06:21;;;;;;;13.60;3.30;;;;;;;-144.73;94.86;54520.59;5036123;28;20064;-73
2023/03/14 07:08:46;;;;;;;18.27;3.70;;;;;;;-144.73;95.26;54498.00;5013260;28;20033;-74
2023/03/14 07:11:12;;;;;;;16.92;3.40;;;;;;;-144.73;93.98;54563.69;5032726;28;20037;-74
2023/03/14 07:13:38;;;;;;;19.65;4.55;;;;;;;-144.73;92.30;54543.16;5021426;28;20535;-73
2023/03/14 07:16:05;;;;;;;13.82;4.03;;;;;;;-144.73;93.04;54541.13;5032641;28;20021;-73
2023/03/14 07:18:30;;;;;;;13.32;3.28;;;;;;;-144.73;92.84;54498.00;5031937;28;20028;-73
2023/03/14 07:20:55;;;;;;;10.18;3.45;;;;;;;-144.73;91.74;54555.47;5032630;28;20080;-74
2023/03/14 07:23:21;;;;;;;18.48;3.30;;;;;;;-144.73;91.41;54559.59;5033430;28;20037;-74
2023/03/14 07:25:46;;;;;;;17.67;3.83;;;;;;;-144.73;91.45;54584.22;5033178;28;20021;-74
2023/03/14 07:28:11;;;;;;;11.18;3.10;;;;;;;-144.73;91.02;54498.00;5024427;28;20037;-71
2023/03/14 07:30:37;;;;;;;17.65;3.47;;;;;;;-144.73;90.83;54563.69;5024229;28;20063;-71
2023/03/14 07:33:02;;;;;;;14.55;2.85;;;;;;;-144.73;91.80;54543.16;5028250;28;20030;-72
2023/03/14 07:35:27;;;;;;;14.38;3.42;;;;;;;-144.73;93.10;54539.06;5029782;28;20021;-71
2023/03/14 07:37:53;;;;;;;12.57;3.92;;;;;;;-144.73;92.83;54547.28;5034089;28;20037;-71
2023/03/14 07:40:19;;;;;;;12.10;3.38;;;;;;;-144.73;93.59;54600.63;5030473;28;20013;-71
2023/03/14 07:42:44;;;;;;;12.52;3.30;;;;;;;-144.73;93.72;54526.75;5036929;28;20163;-72
2023/03/14 07:45:11;;;;;;;17.88;4.10;;;;;;;-144.73;94.14;54551.38;5018548;28;20053;-72
2023/03/14 07:47:36;;;;;;;14.23;3.28;;;;;;;-144.73;94.14;54539.06;5024084;28;20048;-72
2023/03/14 07:50:03;;;;;;;12.80;3.95;;;;;;;-144.73;93.17;54539.06;5040616;28;20029;-72
2023/03/14 07:52:29;;;;;;;9.85;3.00;;;;;;;-144.73;92.58;54543.16;5021262;28;20171;-72
2023/03/14 07:54:54;;;;;;;12.57;3.42;;;;;;;-144.73;93.28;54543.16;5022808;28;20116;-72
2023/03/14 07:57:19;;;;;;;13.73;3.08;;;;;;;-144.73;92.58;54539.06;5016874;28;20065;-72
2023/03/14 07:59:45;;;;;;;10.57;2.58;;;;;;;-144.73;91.78;54539.06;5019825;28;20037;-72
2023/03/14 08:02:12;;;;;;;11.85;2.88;;;;;;;-144.73;91.28;54514.44;5015010;28;20045;-72
2023/03/14 08:04:39;;;;;;;14.65;3.22;;;;;;;-144.73;91.05;54555.47;5016677;28;20040;-72
2023/03/14 08:07:04;;;;;;;6.80;2.10;;;;;;;-144.73;91.25;54571.91;5017758;28;20036;-72
2023/03/14 08:09:30;;;;;;;13.40;2.33;;;;;;;-144.73;90.74;54498.00;5017547;28;20370;-72
2023/03/14 08:11:55;;;;;;;11.82;2.33;;;;;;;-144.73;90.30;54551.38;5034772;28;20045;-72
2023/03/14 08:14:23;;;;;;;11.30;2.65;;;;;;;-144.73;90.72;54526.75;5016573;28;20039;-72
2023/03/14 08:16:49;;;;;;;11.35;2.05;;;;;;;-144.73;89.87;54547.28;5023105;28;20082;-72
2023/03/14 08:19:15;;;;;;;9.38;2.38;;;;;;;-144.73;89.62;54539.06;5020544;28;20057;-71
2023/03/14 08:21:40;;;;;;;16.08;2.42;;;;;;;-144.73;89.11;54518.53;5029524;28;20065;-72
2023/03/14 08:24:06;;;;;;;10.23;2.63;;;;;;;-144.73;89.21;54543.16;5024084;28;20037;-72
2023/03/14 08:26:31;;;;;;;10.18;2.53;;;;;;;-144.73;89.87;54514.44;5020543;28;20107;-72
2023/03/14 08:28:56;;;;;;;11.27;2.47;;;;;;;-144.73;89.06;54539.06;5027603;28;20033;-72
2023/03/14 08:31:22;;;;;;;10.20;2.42;;;;;;;-144.73;89.29;54559.59;5029195;28;20025;-71
2023/03/14 08:33:47;;;;;;;10.55;2.30;;;;;;;-144.73;88.64;54543.16;5033452;28;20043;-72
2023/03/14 08:36:12;;;;;;;4.38;2.00;;;;;;;-144.73;88.25;54559.59;5010517;28;20068;-72
2023/03/14 08:38:38;;;;;;;8.35;2.42;;;;;;;-144.73;89.54;54539.06;5032048;28;20026;-72
2023/03/14 08:41:04;;;;;;;15.80;2.97;;;;;;;-144.73;89.24;54559.59;5038582;28;20041;-74
2023/03/14 08:43:30;;;;;;;11.07;2.72;;;;;;;-144.73;89.06;54518.53;5033194;28;20036;-72
2023/03/14 08:46:00;;;;;;;8.90;2.60;;;;;;;-144.73;89.28;54549.31;5038087;28;20470;-72
2023/03/14 08:48:27;;;;;;;12.00;3.47;;;;;;;-144.73;88.88;54502.13;5026852;28;20101;-72
2023/03/14 08:50:52;;;;;;;15.10;3.13;;;;;;;-144.73;88.83;54489.81;5027247;28;20033;-72
2023/03/14 08:53:18;;;;;;;12.93;3.63;;;;;;;-144.73;89.54;54539.06;5017571;28;20113;-72
2023/03/14 08:55:43;;;;;;;22.20;4.10;;;;;;;-144.73;89.46;54563.69;5029208;28;20143;-71
2023/03/14 08:58:09;;;;;;;15.40;3.50;;;;;;;-144.73;89.17;54530.84;5017201;28;20033;-72
2023/03/14 09:00:34;;;;;;;14.70;3.40;;;;;;;-144.73;89.04;54514.44;5038356;28;20123;-72
2023/03/14 09:03:00;;;;;;;16.63;3.75;;;;;;;-144.73;89.57;54518.53;5008315;28;20125;-71
2023/03/14 09:05:25;;;;;;;17.38;3.47;;;;;;;-144.73;91.41;54555.47;5022527;28;20163;-72
2023/03/14 09:07:50;;;;;;;23.60;4.05;;;;;;;-144.73;91.35;54565.75;5041771;28;20037;-72
2023/03/14 09:10:16;;;;;;;16.02;4.05;;;;;;;-144.73;92.48;54514.44;5010591;28;20085;-72
2023/03/14 09:12:41;;;;;;;26.60;5.05;;;;;;;-144.73;92.40;54498.00;5016375;28;20124;-72
2023/03/14 09:15:07;;;;;;;22.25;5.38;;;;;;;-144.73;92.33;54510.31;5013542;28;20021;-72
2023/03/14 09:17:33;;;;;;;17.67;4.35;;;;;;;-144.73;92.98;54563.69;5028995;28;20042;-72
2023/03/14 09:19:58;;;;;;;15.27;4.68;;;;;;;-144.73;92.60;54569.84;5026158;28;20041;-72
2023/03/14 09:22:23;;;;;;;14.02;4.82;;;;;;;-144.73;93.86;54539.06;5020048;28;20057;-71
2023/03/14 09:24:49;;;;;;;17.88;4.88;;;;;;;-144.73;93.93;54559.59;5032494;28;20022;-71
2023/03/14 09:27:14;;;;;;;16.48;5.25;;;;;;;-144.73;93.07;54508.28;5021294;28;20029;-72
2023/03/14 09:29:40;;;;;;;14.93;4.93;;;;;;;-144.73;92.51;54514.44;5018064;28;20029;-72
2023/03/14 09:32:05;;;;;;;30.23;4.50;;;;;;;-144.73;92.25;54502.13;5034943;28;20048;-71
2023/03/14 09:34:30;;;;;;;13.65;4.45;;;;;;;-144.73;92.78;54518.53;5022881;28;20024;-71
2023/03/14 09:36:56;;;;;;;17.20;5.10;;;;;;;-144.73;92.56;54539.06;5013616;28;20072;-71
2023/03/14 09:39:22;;;;;;;16.52;5.00;;;;;;;-144.73;92.30;54539.06;5038338;28;20028;-71
2023/03/14 09:41:50;;;;;;;16.73;5.28;;;;;;;-144.73;92.78;54547.28;5007961;28;20033;-71
2023/03/14 09:44:25;;;;;;;17.10;5.65;;;;;;;-144.73;93.09;54483.66;5041525;28;20555;-72
2023/03/14 09:46:53;;;;;;;15.23;5.60;;;;;;;-144.73;93.69;54510.31;5033296;28;20440;-70
2023/03/14 09:49:27;;;;;;;17.48;6.00;;;;;;;-144.73;94.61;54539.06;5023235;28;20112;-71
2023/03/14 09:51:56;;;;;;;18.05;6.47;;;;;;;-144.73;96.72;54549.31;5025220;28;20037;-70
2023/03/14 09:54:38;;;;;;;19.42;6.85;;;;;;;-144.73;98.10;54506.22;5014836;28;20020;-71
2023/03/14 09:57:06;;;;;;;18.83;5.38;;;;;;;-144.73;98.97;54514.44;5014376;28;20098;-71
2023/03/14 09:59:34;;;;;;;13.82;4.80;;;;;;;-144.73;98.96;54530.84;5010130;28;20021;-71
2023/03/14 10:02:11;;;;;;;18.50;5.95;;;;;;;-144.73;100.00;54555.47;5029996;28;20113;-71
2023/03/14 10:04:41;;;;;;;16.08;3.10;;;;;;;-144.73;100.00;54530.84;5033551;28;20064;-73
2023/03/14 10:07:13;;;;;;;8.75;3.08;;;;;;;-144.73;100.00;54518.53;5013503;28;20120;-75
2023/03/14 10:09:38;;;;;;;8.02;1.48;;;;;;;-144.73;100.00;54518.53;5033184;28;20020;-83
2023/03/14 10:12:06;;;;;;;5.90;1.92;;;;;;;-144.73;100.00;54539.06;5017733;28;20066;-77
2023/03/14 10:14:37;;;;;;;4.68;1.23;;;;;;;-144.73;100.00;54561.63;5015556;28;20016;-77
2023/03/14 10:17:11;;;;;;;4.43;1.20;;;;;;;-144.73;100.00;54543.16;5017405;28;20502;-80
2023/03/14 10:19:50;;;;;;;9.55;2.00;;;;;;;-144.73;100.00;54539.06;5030967;28;20028;-77
2023/03/14 10:22:17;;;;;;;5.65;1.60;;;;;;;-144.73;100.00;54539.06;5037242;28;20557;-77
2023/03/14 10:24:46;;;;;;;6.45;1.70;;;;;;;-144.73;100.00;54524.69;5014963;28;20116;-76
2023/03/14 10:27:28;;;;;;;4.78;2.10;;;;;;;-144.73;100.00;54510.31;5014686;28;20006;-75
2023/03/14 10:29:59;;;;;;;8.35;1.92;;;;;;;-144.73;100.00;54512.38;5034337;28;20060;-75
2023/03/14 10:32:35;;;;;;;2.47;1.58;;;;;;;-144.73;100.00;54518.53;5011613;28;20025;-75
2023/03/14 10:35:06;;;;;;;3.17;1.40;;;;;;;-144.73;100.00;54539.06;5011632;28;20033;-75
2023/03/14 10:37:32;;;;;;;3.13;1.60;;;;;;;-144.73;100.00;54547.28;5018002;28;20048;-75
2023/03/14 10:40:05;;;;;;;6.95;1.58;;;;;;;-144.73;100.00;54555.47;5036031;28;20027;-74
2023/03/14 10:42:44;;;;;;;3.35;1.27;;;;;;;-144.73;100.00;54555.47;5018649;28;20037;-74
2023/03/14 10:45:33;;;;;;;2.63;1.05;;;;;;;-144.73;100.00;54539.06;5032911;28;20017;-74
2023/03/14 10:48:16;;;;;;;3.13;1.02;;;;;;;-144.73;100.00;54555.47;5036900;28;20393;-74
2023/03/14 10:50:49;;;;;;;3.05;1.15;;;;;;;-144.73;100.00;54512.38;5017214;28;20405;-76
2023/03/14 10:53:17;;;;;;;4.35;0.90;;;;;;;-144.73;100.00;54547.28;5014178;28;20056;-73
2023/03/14 10:55:45;;;;;;;4.30;1.13;;;;;;;-144.73;100.00;54522.63;5013579;28;20025;-76
2023/03/14 10:58:25;;;;;;;2.58;0.90;;;;;;;-144.73;100.00;54553.44;5021926;28;20057;-74
2023/03/14 11:00:59;;;;;;;4.38;1.20;;;;;;;-144.73;100.00;54506.22;5014278;28;20025;-73
2023/03/14 11:03:28;;;;;;;4.68;1.33;;;;;;;-144.73;100.00;54551.38;5026350;28;20029;-73
2023/03/14 11:06:15;;;;;;;3.38;0.93;;;;;;;-144.73;100.00;54580.13;5018756;28;20034;-73
2023/03/14 11:09:17;;;;;;;2.15;0.90;;;;;;;-144.73;100.00;54502.13;5033140;28;20085;-73